Portada
METAR-TAF:

METAR-TAF

Aeroports :

Jizan, Aràbia Saudita

latitud: 16-54N, longitud: 042-35E, altitud: 6 m

Observació

L'informe es va fer fa 40 minuts, a les 11:00 UTC
Vent 9 kt del Sud/Sud-Oest
Temperatura 32°C
Humitat 59%
Pressió 1010 hPa
Visibilitat 10 km o més
Escasses núvols a una alçada de 3000 ft

METAR: OEGN 181100Z 21009KT 9999 FEW030 32/23 Q1010 NOSIG

Hora: 14:40 (11:40 UTC)

Pronòstic

L'informe es va fer fa 40 minuts, a les 11:00 UTC
Pronòstic vàlid del 18 a les 12 UTC al 19 a les 18 UTC
Vent 14 kt del Oest/Sud-Oest
Visibilitat 10 km o més
Escasses núvols a una alçada de 4000 ft
Evolucionant progressivament
l' 18 a les 18 UTC al 18 a les 20 UTC
Vent 3 kt amb direcció variable

TAF: OEGN 181100Z 1812/1918 24014KT 9999 FEW040 BECMG 1818/1820 VRB03KT

Observacions i pronòstics meteorològics de més de 4000 aeroports (METAR i TAF).

Les estacions disponibles són els punts grocs i vermells al mapa.

Posi el ratolí al punt desitjat per veure el nom de l'estació.

Feu clic per veure les observacions i els pronòstics meteorològics.

Per canviar el mapa: feu clic els botons verds amb una creu de color negre per apropar; al botó verd amb un guió per allunyar la imatge; o en les fletxes verdes per a mapes adjacents.


METAR-TAF: